createdAt,value
2019-01-24T00:01:36.633Z,70.83
2019-01-24T00:04:03.642Z,69.98
2019-01-24T00:06:30.600Z,69.36
2019-01-24T00:08:57.554Z,69.09
2019-01-24T00:11:24.506Z,69.17
2019-01-24T00:13:51.477Z,69.51
2019-01-24T00:16:18.402Z,69.55
2019-01-24T00:18:45.363Z,69.86
2019-01-24T00:21:12.293Z,70.01
2019-01-24T00:23:39.311Z,69.47
2019-01-24T00:26:06.257Z,69.73
2019-01-24T00:28:33.223Z,69.87
2019-01-24T00:31:00.248Z,69.64
2019-01-24T00:33:27.250Z,69.31
2019-01-24T00:35:54.226Z,68.82
2019-01-24T00:38:21.183Z,68.40
2019-01-24T00:40:48.112Z,68.92
2019-01-24T00:43:15.050Z,67.81
2019-01-24T00:45:42.102Z,67.64
2019-01-24T00:48:09.088Z,68.10
2019-01-24T00:50:36.477Z,68.04
2019-01-24T00:53:03.889Z,67.91
2019-01-24T00:55:30.830Z,68.50
2019-01-24T00:57:57.917Z,68.32
2019-01-24T01:00:25.003Z,68.58
2019-01-24T01:02:51.982Z,69.13
2019-01-24T01:05:19.930Z,69.37
2019-01-24T01:07:47.104Z,69.46
2019-01-24T01:10:14.051Z,68.83
2019-01-24T01:12:41.047Z,68.74
2019-01-24T01:15:08.787Z,68.81
2019-01-24T01:17:35.760Z,68.65
2019-01-24T01:20:02.757Z,68.31
2019-01-24T01:22:29.694Z,68.21
2019-01-24T01:24:56.698Z,68.42
2019-01-24T01:27:23.644Z,68.27
2019-01-24T01:29:50.606Z,67.99
2019-01-24T01:32:17.563Z,68.26
2019-01-24T01:34:44.524Z,67.79
2019-01-24T01:37:12.375Z,67.74
2019-01-24T01:39:39.326Z,67.88
2019-01-24T01:42:06.453Z,67.75
2019-01-24T01:44:33.410Z,67.84
2019-01-24T01:47:00.451Z,68.16
2019-01-24T01:49:27.407Z,68.03
2019-01-24T01:51:54.403Z,68.05
2019-01-24T01:54:21.455Z,68.22
2019-01-24T01:56:48.397Z,68.22
2019-01-24T01:59:15.359Z,68.09
2019-01-24T02:01:42.341Z,67.98
2019-01-24T02:04:09.290Z,67.70
2019-01-24T02:06:36.252Z,67.90
2019-01-24T02:09:03.214Z,68.36
2019-01-24T02:11:30.346Z,68.30
2019-01-24T02:13:57.302Z,68.11
2019-01-24T02:16:24.320Z,68.52
2019-01-24T02:18:51.255Z,68.71
2019-01-24T02:21:18.197Z,68.85
2019-01-24T02:23:45.181Z,68.83
2019-01-24T02:26:12.127Z,68.67
2019-01-24T02:28:39.061Z,68.83
2019-01-24T02:31:06.068Z,68.73
2019-01-24T02:33:33.005Z,68.92
2019-01-24T02:35:59.966Z,68.90
2019-01-24T02:38:26.954Z,68.77
2019-01-24T02:40:53.988Z,69.01
2019-01-24T02:43:20.931Z,69.10
2019-01-24T02:45:47.881Z,69.02
2019-01-24T02:48:14.833Z,68.94
2019-01-24T02:50:41.861Z,68.58
2019-01-24T02:53:08.893Z,68.12
2019-01-24T02:55:35.943Z,68.17
2019-01-24T02:58:02.913Z,67.69
2019-01-24T03:00:29.883Z,67.52
2019-01-24T03:02:56.841Z,67.58
2019-01-24T03:05:24.029Z,67.51
2019-01-24T03:07:50.983Z,67.76
2019-01-24T03:10:17.921Z,67.89
2019-01-24T03:12:44.873Z,68.08
2019-01-24T03:15:16.630Z,68.39
2019-01-24T03:17:43.610Z,68.42
2019-01-24T03:20:11.116Z,67.62
2019-01-24T03:22:38.087Z,67.17
2019-01-24T03:25:05.066Z,66.96
2019-01-24T03:27:31.998Z,66.77
2019-01-24T03:29:58.985Z,66.80
2019-01-24T03:32:25.941Z,66.99
2019-01-24T03:34:53.287Z,66.90
2019-01-24T03:37:20.231Z,67.11
2019-01-24T03:39:47.174Z,67.40
2019-01-24T03:42:14.126Z,67.69
2019-01-24T03:44:41.201Z,67.89
2019-01-24T03:47:08.132Z,67.34
2019-01-24T03:49:35.082Z,67.29
2019-01-24T03:52:02.814Z,67.21
2019-01-24T03:54:29.900Z,67.04
2019-01-24T03:56:56.849Z,67.06
2019-01-24T03:59:23.803Z,67.11
2019-01-24T04:01:50.748Z,67.08
2019-01-24T04:04:17.718Z,66.89
2019-01-24T04:06:44.735Z,67.03
2019-01-24T04:09:11.705Z,67.03
2019-01-24T04:11:38.683Z,67.45
2019-01-24T04:14:05.630Z,67.50
2019-01-24T04:16:32.587Z,67.65
2019-01-24T04:18:59.516Z,67.65
2019-01-24T04:21:26.794Z,67.52
2019-01-24T04:23:53.722Z,68.06
2019-01-24T04:26:20.688Z,68.30
2019-01-24T04:28:47.641Z,67.98
2019-01-24T04:31:14.585Z,68.38
2019-01-24T04:33:41.548Z,68.36
2019-01-24T04:36:08.688Z,68.08
2019-01-24T04:38:35.656Z,66.55
2019-01-24T04:41:02.635Z,63.91
2019-01-24T04:43:29.636Z,63.04
2019-01-24T04:45:56.639Z,61.99
2019-01-24T04:48:23.582Z,61.71
2019-01-24T04:50:50.529Z,61.55
2019-01-24T04:53:17.479Z,61.64
2019-01-24T04:55:44.404Z,62.04
2019-01-24T04:58:11.536Z,61.45
2019-01-24T05:00:38.496Z,61.43
2019-01-24T05:03:05.436Z,61.80
2019-01-24T05:05:32.383Z,61.45
2019-01-24T05:07:59.348Z,61.25
2019-01-24T05:10:26.296Z,61.40
2019-01-24T05:12:53.378Z,61.30
2019-01-24T05:15:20.376Z,61.10
2019-01-24T05:17:47.332Z,60.48
2019-01-24T05:20:14.730Z,59.77
2019-01-24T05:22:42.134Z,59.60
2019-01-24T05:25:10.450Z,59.80
2019-01-24T05:27:37.877Z,59.41
2019-01-24T05:30:08.583Z,59.56
2019-01-24T05:32:36.150Z,59.48
2019-01-24T05:35:03.561Z,59.58
2019-01-24T05:37:31.026Z,59.38
2019-01-24T05:39:58.429Z,59.07
2019-01-24T05:42:26.563Z,59.13
2019-01-24T05:44:53.978Z,59.08
2019-01-24T05:47:21.445Z,59.43
2019-01-24T05:49:48.856Z,59.15
2019-01-24T05:52:19.773Z,59.21
2019-01-24T05:54:43.698Z,59.55
2019-01-24T05:57:11.246Z,59.35
2019-01-24T05:59:38.727Z,59.75
2019-01-24T06:02:06.198Z,59.98
2019-01-24T06:04:33.656Z,59.46
2019-01-24T06:07:01.077Z,59.27
2019-01-24T06:09:28.508Z,59.58
2019-01-24T06:11:55.931Z,59.71
2019-01-24T06:14:23.343Z,59.82
2019-01-24T06:16:50.787Z,59.67
2019-01-24T06:19:18.204Z,60.06
2019-01-24T06:21:45.642Z,60.02
2019-01-24T06:24:13.047Z,59.90
2019-01-24T06:26:40.473Z,59.82
2019-01-24T06:29:07.879Z,60.02
2019-01-24T06:31:35.298Z,59.82
2019-01-24T06:34:02.833Z,59.88
2019-01-24T06:36:30.347Z,59.84
2019-01-24T06:38:57.735Z,60.28
2019-01-24T06:41:25.146Z,60.00
2019-01-24T06:43:52.622Z,59.85
2019-01-24T06:46:20.045Z,59.60
2019-01-24T06:48:47.568Z,59.31
2019-01-24T06:51:14.974Z,59.30
2019-01-24T06:53:42.064Z,59.65
2019-01-24T06:56:10.575Z,60.24
2019-01-24T06:58:37.935Z,59.93
2019-01-24T07:01:05.394Z,60.18
2019-01-24T07:03:32.812Z,59.61
2019-01-24T07:06:00.299Z,59.53
2019-01-24T07:08:27.245Z,59.29
2019-01-24T07:10:54.249Z,58.95
2019-01-24T07:13:21.866Z,58.88
2019-01-24T07:15:48.913Z,58.67
2019-01-24T07:18:16.024Z,58.09
2019-01-24T07:20:43.116Z,57.08
2019-01-24T07:23:10.056Z,57.10
2019-01-24T07:25:37.035Z,56.92
2019-01-24T07:28:04.452Z,57.11
2019-01-24T07:30:32.012Z,57.18
2019-01-24T07:32:59.749Z,57.40
2019-01-24T07:35:26.823Z,57.59
2019-01-24T07:37:53.780Z,57.76
2019-01-24T07:40:20.753Z,57.92
2019-01-24T07:42:48.183Z,58.39
2019-01-24T07:45:27.604Z,58.70
2019-01-24T07:47:55.027Z,58.74
2019-01-24T07:50:23.456Z,59.19
2019-01-24T07:52:50.860Z,59.01
2019-01-24T07:55:17.827Z,59.43
2019-01-24T07:57:45.369Z,59.30
2019-01-24T08:00:19.654Z,59.22
2019-01-24T08:02:45.793Z,59.57
2019-01-24T08:05:12.904Z,59.91
2019-01-24T08:07:40.361Z,59.98
2019-01-24T08:10:07.346Z,59.94
2019-01-24T08:12:34.781Z,59.96
2019-01-24T08:15:03.519Z,59.93
2019-01-24T08:17:30.982Z,59.98
2019-01-24T08:19:58.556Z,60.02
2019-01-24T08:22:26.996Z,60.15
2019-01-24T08:24:54.521Z,60.01
2019-01-24T08:27:21.939Z,60.06
2019-01-24T08:29:49.359Z,59.91
2019-01-24T08:32:16.777Z,60.23
2019-01-24T08:34:44.249Z,60.05
2019-01-24T08:37:11.760Z,60.25
2019-01-24T08:39:39.177Z,60.28
2019-01-24T08:42:06.579Z,60.57
2019-01-24T08:44:34.006Z,60.58
2019-01-24T08:47:01.486Z,60.40
2019-01-24T08:49:28.903Z,60.21
2019-01-24T08:51:56.308Z,59.90
2019-01-24T08:54:23.749Z,59.55
2019-01-24T08:56:51.171Z,59.06
2019-01-24T08:59:18.606Z,58.94
2019-01-24T09:01:46.071Z,58.90
2019-01-24T09:04:13.470Z,58.62
2019-01-24T09:06:40.913Z,58.90
2019-01-24T09:09:08.465Z,58.79
2019-01-24T09:11:35.884Z,58.87
2019-01-24T09:14:04.440Z,59.24
2019-01-24T09:16:31.912Z,59.58
2019-01-24T09:18:59.330Z,59.41
2019-01-24T09:21:26.753Z,59.20
2019-01-24T09:23:54.205Z,59.44
2019-01-24T09:26:22.070Z,59.19
2019-01-24T09:28:49.534Z,58.76
2019-01-24T09:31:17.376Z,58.97
2019-01-24T09:33:44.823Z,58.87
2019-01-24T09:36:12.776Z,58.49
2019-01-24T09:38:40.322Z,58.82
2019-01-24T09:41:07.766Z,58.55
2019-01-24T09:43:35.271Z,58.58
2019-01-24T09:46:02.278Z,58.59
2019-01-24T09:48:29.712Z,58.46
2019-01-24T09:50:57.191Z,58.57
2019-01-24T09:53:24.138Z,58.29
2019-01-24T09:55:51.540Z,58.22
2019-01-24T09:58:18.730Z,58.36
2019-01-24T10:00:46.261Z,58.46
2019-01-24T10:03:13.727Z,58.44
2019-01-24T10:05:41.196Z,58.29
2019-01-24T10:08:08.922Z,58.10
2019-01-24T10:10:36.324Z,58.15
2019-01-24T10:13:03.759Z,57.89
2019-01-24T10:15:31.177Z,57.82
2019-01-24T10:17:58.589Z,57.79
2019-01-24T10:20:26.002Z,57.29
2019-01-24T10:22:52.985Z,56.99
2019-01-24T10:25:21.110Z,56.95
2019-01-24T10:27:48.545Z,56.65
2019-01-24T10:30:15.967Z,56.47
2019-01-24T10:32:43.613Z,56.39
2019-01-24T10:35:11.023Z,56.48
2019-01-24T10:37:38.537Z,55.79
2019-01-24T10:40:08.731Z,55.48
2019-01-24T10:42:36.222Z,55.53
2019-01-24T10:45:03.628Z,55.43
2019-01-24T10:47:31.238Z,55.49
2019-01-24T10:49:59.268Z,55.60
2019-01-24T10:52:26.748Z,55.32
2019-01-24T10:54:55.291Z,55.08
2019-01-24T10:57:22.684Z,55.04
2019-01-24T10:59:50.162Z,55.03
2019-01-24T11:02:17.616Z,54.85
2019-01-24T11:04:45.074Z,54.27
2019-01-24T11:07:12.501Z,53.48
2019-01-24T11:09:39.928Z,52.04
2019-01-24T11:12:07.434Z,50.90
2019-01-24T11:14:34.855Z,49.51
2019-01-24T11:17:02.257Z,48.53
2019-01-24T11:19:29.660Z,48.04
2019-01-24T11:21:57.172Z,48.32
2019-01-24T11:24:24.713Z,48.52
2019-01-24T11:26:52.193Z,49.06
2019-01-24T11:29:20.193Z,49.78
2019-01-24T11:31:47.637Z,49.56
2019-01-24T11:34:15.953Z,49.40
2019-01-24T11:36:42.825Z,46.33
2019-01-24T11:39:10.240Z,45.12
2019-01-24T11:41:37.699Z,45.74
2019-01-24T11:44:05.450Z,44.82
2019-01-24T11:46:33.314Z,42.33
2019-01-24T11:49:00.748Z,42.25
2019-01-24T11:51:28.156Z,42.15
2019-01-24T11:53:56.296Z,40.15
2019-01-24T11:56:23.773Z,40.72
2019-01-24T11:58:51.177Z,42.06
2019-01-24T12:01:19.990Z,41.75
2019-01-24T12:03:46.177Z,39.77
2019-01-24T12:06:13.608Z,37.98
2019-01-24T12:08:41.165Z,36.27
2019-01-24T12:11:08.590Z,35.89
2019-01-24T12:13:36.206Z,35.85
2019-01-24T12:16:03.865Z,33.93
2019-01-24T12:18:31.302Z,33.41
2019-01-24T12:20:59.662Z,34.65
2019-01-24T12:23:27.329Z,35.42
2019-01-24T12:25:54.826Z,36.28
2019-01-24T12:28:22.559Z,38.61
2019-01-24T12:30:50.013Z,39.33
2019-01-24T12:33:17.727Z,40.98
2019-01-24T12:35:45.315Z,41.79
2019-01-24T12:38:13.667Z,42.06
2019-01-24T12:40:45.947Z,43.05
2019-01-24T12:43:13.570Z,43.49
2019-01-24T12:45:42.092Z,43.85
2019-01-24T12:48:09.598Z,44.01
2019-01-24T12:50:37.953Z,44.61
2019-01-24T12:53:05.379Z,43.79
2019-01-24T12:55:32.910Z,44.13
2019-01-24T12:58:00.311Z,45.20
2019-01-24T13:00:27.720Z,45.19
2019-01-24T13:02:55.192Z,45.50
2019-01-24T13:05:22.775Z,45.09
2019-01-24T13:07:50.231Z,44.95
2019-01-24T13:10:19.122Z,45.01
2019-01-24T13:12:46.549Z,45.09
2019-01-24T13:15:14.027Z,44.71
2019-01-24T13:17:41.517Z,44.63
2019-01-24T13:20:10.378Z,45.41
2019-01-24T13:22:37.824Z,45.21
2019-01-24T13:25:05.285Z,45.24
2019-01-24T13:27:32.853Z,45.91
2019-01-24T13:30:00.267Z,46.58
2019-01-24T13:32:27.665Z,45.97
2019-01-24T13:34:55.817Z,46.17
2019-01-24T13:37:25.956Z,46.22
2019-01-24T13:39:50.768Z,46.61
2019-01-24T13:42:18.159Z,46.62
2019-01-24T13:44:45.590Z,46.71
2019-01-24T13:47:12.990Z,46.32
2019-01-24T13:49:40.466Z,46.44
2019-01-24T13:52:08.207Z,46.07
2019-01-24T13:54:35.362Z,46.73
2019-01-24T13:57:02.859Z,46.77
2019-01-24T13:59:30.333Z,46.72
2019-01-24T14:01:57.842Z,46.35
2019-01-24T14:04:25.246Z,46.24
2019-01-24T14:06:52.763Z,46.08
2019-01-24T14:09:20.403Z,46.20
2019-01-24T14:11:47.967Z,46.08
2019-01-24T14:14:15.443Z,45.97
2019-01-24T14:16:42.860Z,46.51
2019-01-24T14:19:10.263Z,46.20
2019-01-24T14:21:37.843Z,46.63
2019-01-24T14:24:05.251Z,46.22
2019-01-24T14:26:32.673Z,46.96
2019-01-24T14:29:00.084Z,46.83
2019-01-24T14:31:27.499Z,47.66
2019-01-24T14:33:55.149Z,46.96
2019-01-24T14:36:25.389Z,46.68
2019-01-24T14:38:50.247Z,46.54
2019-01-24T14:41:17.648Z,46.96
2019-01-24T14:43:45.086Z,47.29
2019-01-24T14:46:12.490Z,47.26
2019-01-24T14:48:39.999Z,47.32
2019-01-24T14:51:07.563Z,47.54
2019-01-24T14:53:35.043Z,47.68
2019-01-24T14:56:02.504Z,48.16
2019-01-24T14:58:29.955Z,48.65
2019-01-24T15:00:57.368Z,48.77
2019-01-24T15:03:24.776Z,48.80
2019-01-24T15:05:52.287Z,48.53
2019-01-24T15:08:20.483Z,48.65
2019-01-24T15:10:47.978Z,48.60
2019-01-24T15:13:15.401Z,49.17
2019-01-24T15:15:43.145Z,49.34
2019-01-24T15:18:10.806Z,49.77
2019-01-24T15:20:38.249Z,50.06
2019-01-24T15:23:06.640Z,50.36
2019-01-24T15:25:34.043Z,50.60
2019-01-24T15:28:01.497Z,50.18
2019-01-24T15:30:28.943Z,50.41
2019-01-24T15:32:57.381Z,50.62
2019-01-24T15:35:25.045Z,50.58
2019-01-24T15:37:54.613Z,50.75
2019-01-24T15:40:26.608Z,51.28
2019-01-24T15:42:54.174Z,50.69
2019-01-24T15:45:21.587Z,50.94
2019-01-24T15:47:49.047Z,51.20
2019-01-24T15:50:17.389Z,51.38
2019-01-24T15:52:44.783Z,51.65
2019-01-24T15:55:12.189Z,51.69
2019-01-24T15:57:39.718Z,51.56
2019-01-24T16:00:14.582Z,51.41
2019-01-24T16:02:42.051Z,51.09
2019-01-24T16:05:09.468Z,51.09
2019-01-24T16:07:37.094Z,51.25
2019-01-24T16:10:06.342Z,51.66
2019-01-24T16:12:33.838Z,51.85
2019-01-24T16:15:01.371Z,51.82
2019-01-24T16:17:28.818Z,52.07
2019-01-24T16:19:56.253Z,52.27
2019-01-24T16:22:23.834Z,52.29
2019-01-24T16:24:52.232Z,52.50
2019-01-24T16:27:19.659Z,52.60
2019-01-24T16:29:47.038Z,52.41
2019-01-24T16:32:14.485Z,52.50
2019-01-24T16:34:41.882Z,52.04
2019-01-24T16:37:09.323Z,52.39
2019-01-24T16:39:36.808Z,52.61
2019-01-24T16:42:04.280Z,52.62
2019-01-24T16:44:31.821Z,52.45
2019-01-24T16:46:59.236Z,52.36
2019-01-24T16:49:26.629Z,52.35
2019-01-24T16:51:54.032Z,52.29
2019-01-24T16:54:21.795Z,52.01
2019-01-24T16:56:49.271Z,51.96
2019-01-24T16:59:16.699Z,51.94
2019-01-24T17:01:44.151Z,52.13
2019-01-24T17:04:12.579Z,51.95
2019-01-24T17:06:40.041Z,52.19
2019-01-24T17:09:07.500Z,52.09
2019-01-24T17:11:34.941Z,52.26
2019-01-24T17:14:04.084Z,51.61
2019-01-24T17:16:30.131Z,51.34
2019-01-24T17:18:57.595Z,51.74
2019-01-24T17:21:25.068Z,52.04
2019-01-24T17:23:53.313Z,51.96
2019-01-24T17:26:20.804Z,51.71
2019-01-24T17:28:49.954Z,51.80
2019-01-24T17:31:16.425Z,52.06
2019-01-24T17:33:43.845Z,52.17
2019-01-24T17:36:11.239Z,52.21
2019-01-24T17:38:38.763Z,52.07
2019-01-24T17:41:06.150Z,52.35
2019-01-24T17:43:33.645Z,52.58
2019-01-24T17:46:01.174Z,52.19
2019-01-24T17:48:29.134Z,52.22
2019-01-24T17:50:56.591Z,52.19
2019-01-24T17:53:24.032Z,52.38
2019-01-24T17:55:51.492Z,52.63
2019-01-24T17:58:19.247Z,52.47
2019-01-24T18:00:46.845Z,52.54
2019-01-24T18:03:15.076Z,52.70
2019-01-24T18:05:42.552Z,52.77
2019-01-24T18:08:10.895Z,52.76
2019-01-24T18:10:38.390Z,53.11
2019-01-24T18:13:05.812Z,52.35
2019-01-24T18:15:33.209Z,52.59
2019-01-24T18:18:05.587Z,52.38
2019-01-24T18:20:33.013Z,52.60
2019-01-24T18:23:00.653Z,52.83
2019-01-24T18:25:28.109Z,52.84
2019-01-24T18:27:55.590Z,53.12
2019-01-24T18:30:26.021Z,53.07
2019-01-24T18:32:53.473Z,53.37
2019-01-24T18:35:20.894Z,53.53
2019-01-24T18:37:48.521Z,53.47
2019-01-24T18:40:16.893Z,53.73
2019-01-24T18:42:44.328Z,53.62
2019-01-24T18:45:12.559Z,53.47
2019-01-24T18:47:40.003Z,53.76
2019-01-24T18:50:08.156Z,53.87
2019-01-24T18:52:35.641Z,53.83
2019-01-24T18:55:03.205Z,53.39
2019-01-24T18:57:30.740Z,53.60
2019-01-24T18:59:58.142Z,53.08
2019-01-24T19:02:25.624Z,52.99
2019-01-24T19:04:53.102Z,53.05
2019-01-24T19:07:20.627Z,52.60
2019-01-24T19:09:49.008Z,52.46
2019-01-24T19:12:16.532Z,52.20
2019-01-24T19:14:44.002Z,52.14
2019-01-24T19:17:11.506Z,51.91
2019-01-24T19:19:39.100Z,52.21
2019-01-24T19:22:06.567Z,51.93
2019-01-24T19:24:34.202Z,51.83
2019-01-24T19:27:01.556Z,52.16
2019-01-24T19:29:29.010Z,52.20
2019-01-24T19:31:56.416Z,52.23
2019-01-24T19:34:23.843Z,52.31
2019-01-24T19:36:51.306Z,52.41
2019-01-24T19:39:18.713Z,52.54
2019-01-24T19:41:46.217Z,52.70
2019-01-24T19:44:15.854Z,52.64
2019-01-24T19:46:41.378Z,52.61
2019-01-24T19:49:08.941Z,52.77
2019-01-24T19:51:36.367Z,52.78
2019-01-24T19:54:03.914Z,52.81
2019-01-24T19:56:31.299Z,52.67
2019-01-24T19:58:58.721Z,52.83
2019-01-24T20:01:26.557Z,52.82
2019-01-24T20:03:53.976Z,52.68
2019-01-24T20:06:21.404Z,52.49
2019-01-24T20:08:48.847Z,52.53
2019-01-24T20:11:16.318Z,52.62
2019-01-24T20:13:43.790Z,52.55
2019-01-24T20:16:11.188Z,52.54
2019-01-24T20:18:38.709Z,52.91
2019-01-24T20:21:06.138Z,52.89
2019-01-24T20:23:33.571Z,52.72
2019-01-24T20:26:01.063Z,52.77
2019-01-24T20:28:28.499Z,52.53
2019-01-24T20:30:55.912Z,52.65
2019-01-24T20:33:23.321Z,52.66
2019-01-24T20:35:50.723Z,52.49
2019-01-24T20:38:18.224Z,52.71
2019-01-24T20:40:47.050Z,52.49
2019-01-24T20:43:14.550Z,52.70
2019-01-24T20:45:41.973Z,52.69
2019-01-24T20:48:09.858Z,52.69
2019-01-24T20:50:37.298Z,52.77
2019-01-24T20:53:04.739Z,52.61
2019-01-24T20:55:32.184Z,52.84
2019-01-24T20:57:59.644Z,53.99
2019-01-24T21:00:27.075Z,54.57
2019-01-24T21:02:54.526Z,54.80
2019-01-24T21:05:21.988Z,54.39
2019-01-24T21:07:49.675Z,53.99
2019-01-24T21:10:25.681Z,53.76
2019-01-24T21:12:53.106Z,53.36
2019-01-24T21:15:20.593Z,53.44
2019-01-24T21:17:47.999Z,53.08
2019-01-24T21:20:18.348Z,53.08
2019-01-24T21:22:45.804Z,53.79
2019-01-24T21:25:14.751Z,54.99
2019-01-24T21:27:42.158Z,55.78
2019-01-24T21:30:11.429Z,55.72
2019-01-24T21:32:38.854Z,55.74
2019-01-24T21:35:06.268Z,55.74
2019-01-24T21:37:33.723Z,55.88
2019-01-24T21:40:01.226Z,55.58
2019-01-24T21:42:28.643Z,55.83
2019-01-24T21:44:56.059Z,56.32
2019-01-24T21:47:23.574Z,56.67
2019-01-24T21:49:51.099Z,56.65
2019-01-24T21:52:18.497Z,56.64
2019-01-24T21:54:46.004Z,56.87
2019-01-24T21:57:13.421Z,57.00
2019-01-24T21:59:40.820Z,57.08
2019-01-24T22:02:08.259Z,56.93
2019-01-24T22:04:35.726Z,57.17
2019-01-24T22:07:03.158Z,57.47
2019-01-24T22:09:30.565Z,57.54
2019-01-24T22:11:58.123Z,57.55
2019-01-24T22:14:26.479Z,57.66
2019-01-24T22:16:53.103Z,58.02
2019-01-24T22:19:20.521Z,58.13
2019-01-24T22:21:47.903Z,58.51
2019-01-24T22:24:15.327Z,58.30
2019-01-24T22:26:42.763Z,58.31
2019-01-24T22:29:10.183Z,58.46
2019-01-24T22:31:39.126Z,58.64
2019-01-24T22:34:05.012Z,58.51
2019-01-24T22:36:32.459Z,58.52
2019-01-24T22:38:59.895Z,58.50
2019-01-24T22:41:27.295Z,58.54
2019-01-24T22:43:54.695Z,58.89
2019-01-24T22:46:22.415Z,59.27
2019-01-24T22:48:49.881Z,59.39
2019-01-24T22:51:17.290Z,59.49
2019-01-24T22:53:44.703Z,59.31
2019-01-24T22:56:12.103Z,59.06
2019-01-24T22:58:39.579Z,59.35
2019-01-24T23:01:07.591Z,59.21
2019-01-24T23:03:37.297Z,59.01
2019-01-24T23:06:04.708Z,59.07
2019-01-24T23:08:32.115Z,59.49
2019-01-24T23:10:59.535Z,59.45
2019-01-24T23:13:27.012Z,59.47
2019-01-24T23:15:54.469Z,59.49
2019-01-24T23:18:21.962Z,59.70
2019-01-24T23:20:49.363Z,59.93
2019-01-24T23:23:16.783Z,59.81
2019-01-24T23:25:44.207Z,59.74
2019-01-24T23:28:11.612Z,59.70
2019-01-24T23:30:39.040Z,59.83
2019-01-24T23:33:06.473Z,59.81
2019-01-24T23:35:33.887Z,59.63
2019-01-24T23:38:01.999Z,59.50
2019-01-24T23:40:29.390Z,59.52
2019-01-24T23:42:56.807Z,59.48
2019-01-24T23:45:24.213Z,60.06
2019-01-24T23:47:51.723Z,60.06
2019-01-24T23:50:19.135Z,60.01
2019-01-24T23:52:46.536Z,60.09
2019-01-24T23:55:13.942Z,59.94
2019-01-24T23:57:41.365Z,60.15
